Hauptseite
METAR-TAF:

METAR-TAF

Flughäfen :

Flughafen Sunan

Pjöngjang, Nordkorea

Breite: 39-02N, Länge: 125-47E, Höhe: 36 m

METAR: fehlend

Zeit: 03:50 (18:50 UTC)

Prognose

Neuester Wetterbericht von vor 14 Stunden und 35 Minuten, um 04:15 UTC
Gültige Prognose vom 22 um 06 UTC bis 23 um 06 UTC
Wind 8 kt aus Südost
Sichtweite 10 km oder mehr
Durchbrochene Bewölkung in der Höhe von 2700 ft

TAF: ZKPY 220415Z 2206/2306 13004MPS 9999 BKN027 TX22/2207Z TN11/2221Z

Wetterbeobachtungen und Prognosen von mehr als 4000 Flughäfen (METAR und TAF Bericht).

Die verfügbaren Stationen werden durch gelbe und rote Markierungen auf der Karte dargestellt.

Führen Sie die Maus auf sie, um den Namen der Station zu sehen.

Darauf klicken, um die Beobachtung von Wetterbeobachtungen und Prognosen zu sehen.

Um die Karte zu ändern : klicken Sie auf den grünen Tasten mit einem schwarzen Kreuz Zum Vergrößern, auf den grünen Button mit einem Gedankenstrich zu verkleinern, oder auf die grünen Pfeile für benachbarte Karten.


METAR-TAF: